sensor_id;sensor_type;location;lat;lon;timestamp;temperature;humidity
75899;DHT22;64576;50.460;4.866;2022-10-24T00:04:37;17.38;63.34
75899;DHT22;64576;50.460;4.866;2022-10-24T00:07:09;17.42;63.05
75899;DHT22;64576;50.460;4.866;2022-10-24T00:09:42;17.43;62.81
75899;DHT22;64576;50.460;4.866;2022-10-24T00:17:20;17.18;63.70
75899;DHT22;64576;50.460;4.866;2022-10-24T00:30:05;17.35;63.28
75899;DHT22;64576;50.460;4.866;2022-10-24T00:32:38;17.21;63.90
75899;DHT22;64576;50.460;4.866;2022-10-24T00:35:11;17.17;63.98
75899;DHT22;64576;50.460;4.866;2022-10-24T00:37:44;17.25;63.74
75899;DHT22;64576;50.460;4.866;2022-10-24T00:45:45;17.15;64.00
75899;DHT22;64576;50.460;4.866;2022-10-24T00:48:42;17.11;64.15
75899;DHT22;64576;50.460;4.866;2022-10-24T00:56:20;16.94;65.04
75899;DHT22;64576;50.460;4.866;2022-10-24T00:58:56;16.95;64.76
75899;DHT22;64576;50.460;4.866;2022-10-24T01:01:30;17.01;64.63
75899;DHT22;64576;50.460;4.866;2022-10-24T01:04:10;16.92;64.96
75899;DHT22;64576;50.460;4.866;2022-10-24T01:09:26;16.87;65.19
75899;DHT22;64576;50.460;4.866;2022-10-24T01:17:22;16.71;65.50
75899;DHT22;64576;50.460;4.866;2022-10-24T01:22:31;16.77;65.01
75899;DHT22;64576;50.460;4.866;2022-10-24T01:46:39;16.67;64.55
75899;DHT22;64576;50.460;4.866;2022-10-24T01:49:18;16.45;65.57
75899;DHT22;64576;50.460;4.866;2022-10-24T01:56:54;16.46;65.65
75899;DHT22;64576;50.460;4.866;2022-10-24T02:07:40;16.56;65.41
75899;DHT22;64576;50.460;4.866;2022-10-24T02:13:07;16.46;65.88
75899;DHT22;64576;50.460;4.866;2022-10-24T02:18:11;16.26;66.88
75899;DHT22;64576;50.460;4.866;2022-10-24T02:20:54;16.45;66.05
75899;DHT22;64576;50.460;4.866;2022-10-24T02:26:00;16.16;67.19
75899;DHT22;64576;50.460;4.866;2022-10-24T02:28:39;16.23;67.01
75899;DHT22;64576;50.460;4.866;2022-10-24T02:36:18;16.12;67.54
75899;DHT22;64576;50.460;4.866;2022-10-24T02:38:54;16.39;66.40
75899;DHT22;64576;50.460;4.866;2022-10-24T02:41:31;16.33;66.66
75899;DHT22;64576;50.460;4.866;2022-10-24T02:46:41;16.22;67.20
75899;DHT22;64576;50.460;4.866;2022-10-24T02:52:02;16.25;67.13
75899;DHT22;64576;50.460;4.866;2022-10-24T03:00:23;15.94;68.58
75899;DHT22;64576;50.460;4.866;2022-10-24T03:02:56;15.83;68.91
75899;DHT22;64576;50.460;4.866;2022-10-24T03:05:29;15.76;69.26
75899;DHT22;64576;50.460;4.866;2022-10-24T03:08:01;15.73;69.54
75899;DHT22;64576;50.460;4.866;2022-10-24T03:18:15;15.77;69.81
75899;DHT22;64576;50.460;4.866;2022-10-24T03:20:48;15.67;70.38
75899;DHT22;64576;50.460;4.866;2022-10-24T03:28:26;15.63;70.55
75899;DHT22;64576;50.460;4.866;2022-10-24T03:36:05;15.42;71.49
75899;DHT22;64576;50.460;4.866;2022-10-24T03:48:45;15.47;71.30
75899;DHT22;64576;50.460;4.866;2022-10-24T03:51:19;15.39;71.73
75899;DHT22;64576;50.460;4.866;2022-10-24T03:58:54;15.39;71.77
75899;DHT22;64576;50.460;4.866;2022-10-24T04:01:27;15.35;71.87
75899;DHT22;64576;50.460;4.866;2022-10-24T04:04:00;15.43;71.68
75899;DHT22;64576;50.460;4.866;2022-10-24T04:09:06;15.42;71.61
75899;DHT22;64576;50.460;4.866;2022-10-24T04:11:39;15.29;72.11
75899;DHT22;64576;50.460;4.866;2022-10-24T04:16:45;15.38;71.83
75899;DHT22;64576;50.460;4.866;2022-10-24T04:19:18;15.36;71.82
75899;DHT22;64576;50.460;4.866;2022-10-24T04:32:02;15.26;72.32
75899;DHT22;64576;50.460;4.866;2022-10-24T04:34:35;15.11;72.95
75899;DHT22;64576;50.460;4.866;2022-10-24T04:37:07;15.11;73.02
75899;DHT22;64576;50.460;4.866;2022-10-24T04:44:45;15.15;73.05
75899;DHT22;64576;50.460;4.866;2022-10-24T04:47:18;15.08;73.26
75899;DHT22;64576;50.460;4.866;2022-10-24T04:49:53;15.02;73.49
75899;DHT22;64576;50.460;4.866;2022-10-24T04:54:58;14.89;74.12
75899;DHT22;64576;50.460;4.866;2022-10-24T04:57:34;14.99;73.70
75899;DHT22;64576;50.460;4.866;2022-10-24T05:00:07;15.01;73.56
75899;DHT22;64576;50.460;4.866;2022-10-24T05:02:40;14.87;74.11
75899;DHT22;64576;50.460;4.866;2022-10-24T05:05:13;14.92;73.93
75899;DHT22;64576;50.460;4.866;2022-10-24T05:10:22;14.85;74.32
75899;DHT22;64576;50.460;4.866;2022-10-24T05:12:55;14.77;74.74
75899;DHT22;64576;50.460;4.866;2022-10-24T05:15:28;14.92;74.08
75899;DHT22;64576;50.460;4.866;2022-10-24T05:20:34;14.92;74.17
75899;DHT22;64576;50.460;4.866;2022-10-24T05:33:20;15.15;73.25
75899;DHT22;64576;50.460;4.866;2022-10-24T05:35:54;15.13;73.23
75899;DHT22;64576;50.460;4.866;2022-10-24T05:51:12;14.98;73.91
75899;DHT22;64576;50.460;4.866;2022-10-24T05:58:50;14.75;74.88
75899;DHT22;64576;50.460;4.866;2022-10-24T06:01:26;14.81;74.75
75899;DHT22;64576;50.460;4.866;2022-10-24T06:03:59;14.80;74.82
75899;DHT22;64576;50.460;4.866;2022-10-24T06:06:37;14.73;75.19
75899;DHT22;64576;50.460;4.866;2022-10-24T06:09:06;14.66;75.45
75899;DHT22;64576;50.460;4.866;2022-10-24T06:11:42;14.63;75.68
75899;DHT22;64576;50.460;4.866;2022-10-24T06:14:15;14.71;75.17
75899;DHT22;64576;50.460;4.866;2022-10-24T06:19:22;14.67;75.38
75899;DHT22;64576;50.460;4.866;2022-10-24T06:21:55;14.71;75.25
75899;DHT22;64576;50.460;4.866;2022-10-24T06:24:29;14.80;74.69
75899;DHT22;64576;50.460;4.866;2022-10-24T06:37:17;14.96;73.69
75899;DHT22;64576;50.460;4.866;2022-10-24T06:39:50;15.02;73.58
75899;DHT22;64576;50.460;4.866;2022-10-24T06:42:23;15.08;73.39
75899;DHT22;64576;50.460;4.866;2022-10-24T06:47:56;15.08;73.25
75899;DHT22;64576;50.460;4.866;2022-10-24T06:50:29;15.11;73.22
75899;DHT22;64576;50.460;4.866;2022-10-24T06:53:02;15.05;73.60
75899;DHT22;64576;50.460;4.866;2022-10-24T06:58:07;15.16;73.33
75899;DHT22;64576;50.460;4.866;2022-10-24T07:00:40;15.15;73.33
75899;DHT22;64576;50.460;4.866;2022-10-24T07:03:15;15.19;73.18
75899;DHT22;64576;50.460;4.866;2022-10-24T07:10:53;15.39;72.55
75899;DHT22;64576;50.460;4.866;2022-10-24T07:15:58;15.43;72.63
75899;DHT22;64576;50.460;4.866;2022-10-24T07:21:07;15.44;72.46
75899;DHT22;64576;50.460;4.866;2022-10-24T07:23:40;15.50;72.51
75899;DHT22;64576;50.460;4.866;2022-10-24T07:31:21;15.57;72.24
75899;DHT22;64576;50.460;4.866;2022-10-24T07:44:12;15.42;73.57
75899;DHT22;64576;50.460;4.866;2022-10-24T07:49:17;15.54;73.19
75899;DHT22;64576;50.460;4.866;2022-10-24T07:54:53;15.63;73.06
75899;DHT22;64576;50.460;4.866;2022-10-24T07:57:26;15.88;72.22
75899;DHT22;64576;50.460;4.866;2022-10-24T08:05:05;16.53;70.01
75899;DHT22;64576;50.460;4.866;2022-10-24T08:10:11;16.57;70.61
75899;DHT22;64576;50.460;4.866;2022-10-24T08:12:45;16.66;69.37
75899;DHT22;64576;50.460;4.866;2022-10-24T08:15:18;16.84;69.40
75899;DHT22;64576;50.460;4.866;2022-10-24T08:25:25;16.60;69.71
75899;DHT22;64576;50.460;4.866;2022-10-24T08:31:00;16.14;71.83
75899;DHT22;64576;50.460;4.866;2022-10-24T08:33:30;16.09;72.51
75899;DHT22;64576;50.460;4.866;2022-10-24T08:52:02;16.21;71.90
75899;DHT22;64576;50.460;4.866;2022-10-24T09:02:37;16.36;71.44
75899;DHT22;64576;50.460;4.866;2022-10-24T09:05:50;16.21;71.79
75899;DHT22;64576;50.460;4.866;2022-10-24T09:13:22;16.29;71.01
75899;DHT22;64576;50.460;4.866;2022-10-24T09:18:40;17.18;68.48
75899;DHT22;64576;50.460;4.866;2022-10-24T09:21:12;17.46;67.85
75899;DHT22;64576;50.460;4.866;2022-10-24T09:28:44;17.00;69.05
75899;DHT22;64576;50.460;4.866;2022-10-24T09:31:19;16.56;70.16
75899;DHT22;64576;50.460;4.866;2022-10-24T09:33:53;16.55;69.73
75899;DHT22;64576;50.460;4.866;2022-10-24T09:41:32;17.19;67.92
75899;DHT22;64576;50.460;4.866;2022-10-24T09:49:19;17.59;66.72
75899;DHT22;64576;50.460;4.866;2022-10-24T10:15:28;16.97;69.26
75899;DHT22;64576;50.460;4.866;2022-10-24T10:18:26;16.79;69.23
75899;DHT22;64576;50.460;4.866;2022-10-24T10:37:04;17.04;68.89
75899;DHT22;64576;50.460;4.866;2022-10-24T10:50:26;16.64;70.25
75899;DHT22;64576;50.460;4.866;2022-10-24T10:53:15;16.70;69.77
75899;DHT22;64576;50.460;4.866;2022-10-24T11:11:27;16.87;69.06
75899;DHT22;64576;50.460;4.866;2022-10-24T11:14:14;17.12;68.71
75899;DHT22;64576;50.460;4.866;2022-10-24T11:24:38;17.11;68.21
75899;DHT22;64576;50.460;4.866;2022-10-24T11:35:32;17.10;68.68
75899;DHT22;64576;50.460;4.866;2022-10-24T11:38:23;16.95;69.45
75899;DHT22;64576;50.460;4.866;2022-10-24T11:46:18;16.53;73.48
75899;DHT22;64576;50.460;4.866;2022-10-24T11:53:58;17.31;70.32
75899;DHT22;64576;50.460;4.866;2022-10-24T11:57:01;16.74;72.24
75899;DHT22;64576;50.460;4.866;2022-10-24T12:05:31;15.80;78.32
75899;DHT22;64576;50.460;4.866;2022-10-24T12:24:01;17.15;73.04
75899;DHT22;64576;50.460;4.866;2022-10-24T12:26:34;16.74;73.73
75899;DHT22;64576;50.460;4.866;2022-10-24T12:35:02;18.66;65.99
75899;DHT22;64576;50.460;4.866;2022-10-24T12:45:22;17.81;68.02
75899;DHT22;64576;50.460;4.866;2022-10-24T13:10:09;19.97;60.27
75899;DHT22;64576;50.460;4.866;2022-10-24T13:20:40;19.11;60.97
75899;DHT22;64576;50.460;4.866;2022-10-24T13:43:46;19.30;60.33
75899;DHT22;64576;50.460;4.866;2022-10-24T13:51:44;20.20;58.27
75899;DHT22;64576;50.460;4.866;2022-10-24T13:54:19;19.54;60.29
75899;DHT22;64576;50.460;4.866;2022-10-24T14:01:56;20.03;58.75
75899;DHT22;64576;50.460;4.866;2022-10-24T14:04:30;19.89;58.82
75899;DHT22;64576;50.460;4.866;2022-10-24T14:12:18;19.77;59.51
75899;DHT22;64576;50.460;4.866;2022-10-24T14:14:51;19.93;59.70
75899;DHT22;64576;50.460;4.866;2022-10-24T14:26:20;18.60;63.35
75899;DHT22;64576;50.460;4.866;2022-10-24T14:28:54;18.94;62.88
75899;DHT22;64576;50.460;4.866;2022-10-24T14:31:28;18.89;63.61
75899;DHT22;64576;50.460;4.866;2022-10-24T14:34:00;17.93;67.10
75899;DHT22;64576;50.460;4.866;2022-10-24T14:36:28;17.45;69.01
75899;DHT22;64576;50.460;4.866;2022-10-24T14:38:55;17.35;69.71
75899;DHT22;64576;50.460;4.866;2022-10-24T14:41:31;17.39;69.83
75899;DHT22;64576;50.460;4.866;2022-10-24T14:43:57;17.36;70.30
75899;DHT22;64576;50.460;4.866;2022-10-24T14:46:39;17.07;70.98
75899;DHT22;64576;50.460;4.866;2022-10-24T14:51:51;16.94;71.84
75899;DHT22;64576;50.460;4.866;2022-10-24T14:54:20;16.91;72.22
75899;DHT22;64576;50.460;4.866;2022-10-24T14:56:46;16.83;72.28
75899;DHT22;64576;50.460;4.866;2022-10-24T14:59:23;16.76;72.91
75899;DHT22;64576;50.460;4.866;2022-10-24T15:01:57;16.69;72.99
75899;DHT22;64576;50.460;4.866;2022-10-24T15:04:41;16.56;73.95
75899;DHT22;64576;50.460;4.866;2022-10-24T15:07:26;16.53;74.33
75899;DHT22;64576;50.460;4.866;2022-10-24T15:12:50;16.33;75.26
75899;DHT22;64576;50.460;4.866;2022-10-24T15:15:24;16.35;75.24
75899;DHT22;64576;50.460;4.866;2022-10-24T15:17:51;16.32;75.43
75899;DHT22;64576;50.460;4.866;2022-10-24T15:20:20;16.35;75.76
75899;DHT22;64576;50.460;4.866;2022-10-24T15:22:48;16.25;76.41
75899;DHT22;64576;50.460;4.866;2022-10-24T15:25:24;16.11;76.64
75899;DHT22;64576;50.460;4.866;2022-10-24T15:27:51;16.12;76.84
75899;DHT22;64576;50.460;4.866;2022-10-24T15:30:23;16.18;76.45
75899;DHT22;64576;50.460;4.866;2022-10-24T15:32:49;16.16;76.61
75899;DHT22;64576;50.460;4.866;2022-10-24T15:35:16;16.12;76.77
75899;DHT22;64576;50.460;4.866;2022-10-24T15:37:56;16.06;77.21
75899;DHT22;64576;50.460;4.866;2022-10-24T15:40:26;16.05;77.21
75899;DHT22;64576;50.460;4.866;2022-10-24T15:42:52;16.02;77.32
75899;DHT22;64576;50.460;4.866;2022-10-24T15:45:18;15.98;78.29
75899;DHT22;64576;50.460;4.866;2022-10-24T15:47:43;15.57;82.24
75899;DHT22;64576;50.460;4.866;2022-10-24T15:50:13;15.23;83.24
75899;DHT22;64576;50.460;4.866;2022-10-24T15:52:39;15.06;84.11
75899;DHT22;64576;50.460;4.866;2022-10-24T15:55:04;14.99;83.78
75899;DHT22;64576;50.460;4.866;2022-10-24T15:57:30;14.96;84.65
75899;DHT22;64576;50.460;4.866;2022-10-24T15:59:55;14.85;84.22
75899;DHT22;64576;50.460;4.866;2022-10-24T16:02:22;14.84;84.14
75899;DHT22;64576;50.460;4.866;2022-10-24T16:04:49;14.89;83.93
75899;DHT22;64576;50.460;4.866;2022-10-24T16:07:15;14.94;83.71
75899;DHT22;64576;50.460;4.866;2022-10-24T16:09:40;14.92;83.77
75899;DHT22;64576;50.460;4.866;2022-10-24T16:12:06;14.89;83.96
75899;DHT22;64576;50.460;4.866;2022-10-24T16:14:31;14.91;83.56
75899;DHT22;64576;50.460;4.866;2022-10-24T16:16:56;14.94;83.14
75899;DHT22;64576;50.460;4.866;2022-10-24T16:19:23;14.88;83.38
75899;DHT22;64576;50.460;4.866;2022-10-24T16:21:51;14.88;83.69
75899;DHT22;64576;50.460;4.866;2022-10-24T16:24:16;14.74;84.22
75899;DHT22;64576;50.460;4.866;2022-10-24T16:26:42;14.73;84.15
75899;DHT22;64576;50.460;4.866;2022-10-24T16:29:08;14.78;83.52
75899;DHT22;64576;50.460;4.866;2022-10-24T16:31:33;14.85;83.19
75899;DHT22;64576;50.460;4.866;2022-10-24T16:33:59;15.01;82.22
75899;DHT22;64576;50.460;4.866;2022-10-24T16:36:24;14.92;82.57
75899;DHT22;64576;50.460;4.866;2022-10-24T16:38:50;14.88;82.85
75899;DHT22;64576;50.460;4.866;2022-10-24T16:41:17;14.92;82.82
75899;DHT22;64576;50.460;4.866;2022-10-24T16:43:43;14.99;81.93
75899;DHT22;64576;50.460;4.866;2022-10-24T16:46:17;14.92;82.47
75899;DHT22;64576;50.460;4.866;2022-10-24T16:48:43;14.98;82.08
75899;DHT22;64576;50.460;4.866;2022-10-24T16:51:10;14.92;82.42
75899;DHT22;64576;50.460;4.866;2022-10-24T16:53:36;14.85;82.42
75899;DHT22;64576;50.460;4.866;2022-10-24T16:56:01;14.98;81.58
75899;DHT22;64576;50.460;4.866;2022-10-24T16:58:26;14.81;82.85
75899;DHT22;64576;50.460;4.866;2022-10-24T17:01:00;14.88;82.36
75899;DHT22;64576;50.460;4.866;2022-10-24T17:03:25;14.71;83.23
75899;DHT22;64576;50.460;4.866;2022-10-24T17:05:51;14.66;83.50
75899;DHT22;64576;50.460;4.866;2022-10-24T17:08:16;14.71;83.01
75899;DHT22;64576;50.460;4.866;2022-10-24T17:10:42;14.74;82.83
75899;DHT22;64576;50.460;4.866;2022-10-24T17:13:07;14.68;83.23
75899;DHT22;64576;50.460;4.866;2022-10-24T17:15:33;14.74;83.00
75899;DHT22;64576;50.460;4.866;2022-10-24T17:17:58;14.74;82.79
75899;DHT22;64576;50.460;4.866;2022-10-24T17:20:23;14.95;81.92
75899;DHT22;64576;50.460;4.866;2022-10-24T17:22:49;14.84;82.45
75899;DHT22;64576;50.460;4.866;2022-10-24T17:25:25;14.77;82.68
75899;DHT22;64576;50.460;4.866;2022-10-24T17:27:51;14.80;82.57
75899;DHT22;64576;50.460;4.866;2022-10-24T17:30:23;14.78;82.79
75899;DHT22;64576;50.460;4.866;2022-10-24T17:32:49;14.81;82.55
75899;DHT22;64576;50.460;4.866;2022-10-24T17:35:16;14.67;83.28
75899;DHT22;64576;50.460;4.866;2022-10-24T17:41:08;14.75;82.86
75899;DHT22;64576;50.460;4.866;2022-10-24T17:43:27;14.71;82.98
75899;DHT22;64576;50.460;4.866;2022-10-24T17:45:55;14.77;82.79
75899;DHT22;64576;50.460;4.866;2022-10-24T17:48:21;14.71;83.09
75899;DHT22;64576;50.460;4.866;2022-10-24T17:50:47;14.67;82.93
75899;DHT22;64576;50.460;4.866;2022-10-24T17:53:17;14.75;82.64
75899;DHT22;64576;50.460;4.866;2022-10-24T17:55:42;14.75;82.62
75899;DHT22;64576;50.460;4.866;2022-10-24T17:58:08;14.81;82.06
75899;DHT22;64576;50.460;4.866;2022-10-24T18:00:33;14.83;82.05
75899;DHT22;64576;50.460;4.866;2022-10-24T18:02:59;14.73;82.66
75899;DHT22;64576;50.460;4.866;2022-10-24T18:05:24;14.73;82.46
75899;DHT22;64576;50.460;4.866;2022-10-24T18:07:50;14.85;81.81
75899;DHT22;64576;50.460;4.866;2022-10-24T18:10:17;14.77;82.21
75899;DHT22;64576;50.460;4.866;2022-10-24T18:12:42;14.75;82.21
75899;DHT22;64576;50.460;4.866;2022-10-24T18:15:12;14.70;82.44
75899;DHT22;64576;50.460;4.866;2022-10-24T18:17:39;14.74;82.08
75899;DHT22;64576;50.460;4.866;2022-10-24T18:20:06;14.63;82.55
75899;DHT22;64576;50.460;4.866;2022-10-24T18:22:33;14.60;82.65
75899;DHT22;64576;50.460;4.866;2022-10-24T18:24:59;14.64;82.63
75899;DHT22;64576;50.460;4.866;2022-10-24T18:27:24;14.46;83.37
75899;DHT22;64576;50.460;4.866;2022-10-24T18:29:50;14.53;82.94
75899;DHT22;64576;50.460;4.866;2022-10-24T18:32:15;14.60;82.65
75899;DHT22;64576;50.460;4.866;2022-10-24T18:34:41;14.67;82.22
75899;DHT22;64576;50.460;4.866;2022-10-24T18:37:07;14.61;82.50
75899;DHT22;64576;50.460;4.866;2022-10-24T18:39:33;14.59;82.82
75899;DHT22;64576;50.460;4.866;2022-10-24T18:44:32;14.54;82.92
75899;DHT22;64576;50.460;4.866;2022-10-24T18:47:03;14.48;83.07
75899;DHT22;64576;50.460;4.866;2022-10-24T18:49:31;14.46;83.34
75899;DHT22;64576;50.460;4.866;2022-10-24T18:52:09;14.56;82.82
75899;DHT22;64576;50.460;4.866;2022-10-24T18:54:38;14.51;82.96
75899;DHT22;64576;50.460;4.866;2022-10-24T18:57:26;14.36;83.50
75899;DHT22;64576;50.460;4.866;2022-10-24T18:59:52;14.34;83.48
75899;DHT22;64576;50.460;4.866;2022-10-24T19:05:35;14.39;83.40
75899;DHT22;64576;50.460;4.866;2022-10-24T19:08:17;14.37;83.59
75899;DHT22;64576;50.460;4.866;2022-10-24T19:10:44;14.33;83.61
75899;DHT22;64576;50.460;4.866;2022-10-24T19:13:10;14.32;83.69
75899;DHT22;64576;50.460;4.866;2022-10-24T19:15:39;14.26;83.79
75899;DHT22;64576;50.460;4.866;2022-10-24T19:18:09;14.29;83.62
75899;DHT22;64576;50.460;4.866;2022-10-24T19:20:35;14.29;83.68
75899;DHT22;64576;50.460;4.866;2022-10-24T19:23:01;14.23;83.89
75899;DHT22;64576;50.460;4.866;2022-10-24T19:25:30;14.12;84.33
75899;DHT22;64576;50.460;4.866;2022-10-24T19:27:55;14.16;84.01
75899;DHT22;64576;50.460;4.866;2022-10-24T19:30:21;14.11;84.38
75899;DHT22;64576;50.460;4.866;2022-10-24T19:32:46;14.11;84.17
75899;DHT22;64576;50.460;4.866;2022-10-24T19:35:11;14.06;84.30
75899;DHT22;64576;50.460;4.866;2022-10-24T19:37:37;14.12;84.11
75899;DHT22;64576;50.460;4.866;2022-10-24T19:40:03;14.22;83.64
75899;DHT22;64576;50.460;4.866;2022-10-24T19:42:28;14.13;83.87
75899;DHT22;64576;50.460;4.866;2022-10-24T19:44:54;14.02;84.26
75899;DHT22;64576;50.460;4.866;2022-10-24T19:47:21;13.98;84.52
75899;DHT22;64576;50.460;4.866;2022-10-24T19:49:47;13.94;84.71
75899;DHT22;64576;50.460;4.866;2022-10-24T19:52:12;13.99;84.46
75899;DHT22;64576;50.460;4.866;2022-10-24T19:54:37;13.91;84.83
75899;DHT22;64576;50.460;4.866;2022-10-24T19:57:02;13.89;84.84
75899;DHT22;64576;50.460;4.866;2022-10-24T19:59:28;13.89;84.86
75899;DHT22;64576;50.460;4.866;2022-10-24T20:01:58;13.89;84.89
75899;DHT22;64576;50.460;4.866;2022-10-24T20:04:24;13.82;85.20
75899;DHT22;64576;50.460;4.866;2022-10-24T20:06:49;13.78;85.43
75899;DHT22;64576;50.460;4.866;2022-10-24T20:09:14;13.79;85.42
75899;DHT22;64576;50.460;4.866;2022-10-24T20:11:40;13.77;85.42
75899;DHT22;64576;50.460;4.866;2022-10-24T20:14:05;13.81;85.30
75899;DHT22;64576;50.460;4.866;2022-10-24T20:16:30;13.79;85.36
75899;DHT22;64576;50.460;4.866;2022-10-24T20:18:57;13.75;85.53
75899;DHT22;64576;50.460;4.866;2022-10-24T20:21:23;13.88;84.98
75899;DHT22;64576;50.460;4.866;2022-10-24T20:23:48;13.94;84.73
75899;DHT22;64576;50.460;4.866;2022-10-24T20:26:20;13.97;84.68
75899;DHT22;64576;50.460;4.866;2022-10-24T20:28:47;13.92;84.93
75899;DHT22;64576;50.460;4.866;2022-10-24T20:31:35;13.86;85.12
75899;DHT22;64576;50.460;4.866;2022-10-24T20:34:03;13.75;85.57
75899;DHT22;64576;50.460;4.866;2022-10-24T20:36:31;13.75;85.56
75899;DHT22;64576;50.460;4.866;2022-10-24T20:38:57;13.74;85.74
75899;DHT22;64576;50.460;4.866;2022-10-24T20:41:25;13.78;85.48
75899;DHT22;64576;50.460;4.866;2022-10-24T20:43:52;13.74;85.64
75899;DHT22;64576;50.460;4.866;2022-10-24T20:46:17;13.71;85.69
75899;DHT22;64576;50.460;4.866;2022-10-24T20:48:42;13.82;85.54
75899;DHT22;64576;50.460;4.866;2022-10-24T20:51:11;13.77;85.72
75899;DHT22;64576;50.460;4.866;2022-10-24T20:53:37;13.75;85.83
75899;DHT22;64576;50.460;4.866;2022-10-24T20:56:10;13.71;86.04
75899;DHT22;64576;50.460;4.866;2022-10-24T20:58:37;13.78;85.79
75899;DHT22;64576;50.460;4.866;2022-10-24T21:01:07;13.91;85.37
75899;DHT22;64576;50.460;4.866;2022-10-24T21:03:34;13.95;85.27
75899;DHT22;64576;50.460;4.866;2022-10-24T21:06:00;13.88;85.44
75899;DHT22;64576;50.460;4.866;2022-10-24T21:08:25;13.88;85.44
75899;DHT22;64576;50.460;4.866;2022-10-24T21:10:50;13.85;85.53
75899;DHT22;64576;50.460;4.866;2022-10-24T21:13:16;13.84;85.70
75899;DHT22;64576;50.460;4.866;2022-10-24T21:15:41;13.85;85.50
75899;DHT22;64576;50.460;4.866;2022-10-24T21:18:06;13.91;85.37
75899;DHT22;64576;50.460;4.866;2022-10-24T21:20:32;13.85;85.54
75899;DHT22;64576;50.460;4.866;2022-10-24T21:22:57;13.78;85.96
75899;DHT22;64576;50.460;4.866;2022-10-24T21:25:22;13.85;85.63
75899;DHT22;64576;50.460;4.866;2022-10-24T21:27:47;13.95;85.45
75899;DHT22;64576;50.460;4.866;2022-10-24T21:30:13;14.09;84.92
75899;DHT22;64576;50.460;4.866;2022-10-24T21:32:38;13.94;85.49
75899;DHT22;64576;50.460;4.866;2022-10-24T21:35:04;13.97;85.45
75899;DHT22;64576;50.460;4.866;2022-10-24T21:37:30;13.99;85.54
75899;DHT22;64576;50.460;4.866;2022-10-24T21:39:56;14.01;85.32
75899;DHT22;64576;50.460;4.866;2022-10-24T21:42:21;13.99;85.48
75899;DHT22;64576;50.460;4.866;2022-10-24T21:44:46;13.98;85.51
75899;DHT22;64576;50.460;4.866;2022-10-24T21:47:12;13.92;85.92
75899;DHT22;64576;50.460;4.866;2022-10-24T21:49:37;13.95;85.78
75899;DHT22;64576;50.460;4.866;2022-10-24T21:52:02;13.86;86.18
75899;DHT22;64576;50.460;4.866;2022-10-24T21:54:28;13.94;86.01
75899;DHT22;64576;50.460;4.866;2022-10-24T21:56:54;13.95;85.90
75899;DHT22;64576;50.460;4.866;2022-10-24T21:59:20;13.97;85.78
75899;DHT22;64576;50.460;4.866;2022-10-24T22:01:46;14.05;85.43
75899;DHT22;64576;50.460;4.866;2022-10-24T22:04:12;14.18;84.87
75899;DHT22;64576;50.460;4.866;2022-10-24T22:06:39;14.06;85.22
75899;DHT22;64576;50.460;4.866;2022-10-24T22:09:06;13.97;85.54
75899;DHT22;64576;50.460;4.866;2022-10-24T22:11:34;13.95;85.62
75899;DHT22;64576;50.460;4.866;2022-10-24T22:13:59;13.92;85.86
75899;DHT22;64576;50.460;4.866;2022-10-24T22:16:27;14.02;85.40
75899;DHT22;64576;50.460;4.866;2022-10-24T22:18:53;14.01;85.42
75899;DHT22;64576;50.460;4.866;2022-10-24T22:24:03;13.91;85.67
75899;DHT22;64576;50.460;4.866;2022-10-24T22:26:30;13.89;85.68
75899;DHT22;64576;50.460;4.866;2022-10-24T22:28:55;13.88;85.87
75899;DHT22;64576;50.460;4.866;2022-10-24T22:31:22;13.84;85.97
75899;DHT22;64576;50.460;4.866;2022-10-24T22:33:47;13.86;85.83
75899;DHT22;64576;50.460;4.866;2022-10-24T22:39:19;13.74;86.32
75899;DHT22;64576;50.460;4.866;2022-10-24T22:41:45;13.79;86.18
75899;DHT22;64576;50.460;4.866;2022-10-24T22:44:13;13.78;86.15
75899;DHT22;64576;50.460;4.866;2022-10-24T22:51:54;13.81;86.09
75899;DHT22;64576;50.460;4.866;2022-10-24T22:54:22;13.67;86.69
75899;DHT22;64576;50.460;4.866;2022-10-24T22:56:48;13.63;86.90
75899;DHT22;64576;50.460;4.866;2022-10-24T22:59:14;13.65;86.62
75899;DHT22;64576;50.460;4.866;2022-10-24T23:07:46;13.53;87.15
75899;DHT22;64576;50.460;4.866;2022-10-24T23:09:45;13.63;86.81
75899;DHT22;64576;50.460;4.866;2022-10-24T23:12:14;13.75;86.25
75899;DHT22;64576;50.460;4.866;2022-10-24T23:14:40;13.75;86.23
75899;DHT22;64576;50.460;4.866;2022-10-24T23:17:06;13.71;86.42
75899;DHT22;64576;50.460;4.866;2022-10-24T23:19:32;13.64;86.72
75899;DHT22;64576;50.460;4.866;2022-10-24T23:22:20;13.65;86.84
75899;DHT22;64576;50.460;4.866;2022-10-24T23:24:46;13.58;87.11
75899;DHT22;64576;50.460;4.866;2022-10-24T23:29:40;13.58;87.04
75899;DHT22;64576;50.460;4.866;2022-10-24T23:32:12;13.61;86.96
75899;DHT22;64576;50.460;4.866;2022-10-24T23:34:38;13.51;87.45
75899;DHT22;64576;50.460;4.866;2022-10-24T23:37:04;13.51;87.44
75899;DHT22;64576;50.460;4.866;2022-10-24T23:39:32;13.46;87.63
75899;DHT22;64576;50.460;4.866;2022-10-24T23:41:59;13.42;87.86
75899;DHT22;64576;50.460;4.866;2022-10-24T23:44:24;13.43;87.98
75899;DHT22;64576;50.460;4.866;2022-10-24T23:47:17;13.39;88.10
75899;DHT22;64576;50.460;4.866;2022-10-24T23:49:54;13.29;88.64
75899;DHT22;64576;50.460;4.866;2022-10-24T23:52:26;13.35;88.41
75899;DHT22;64576;50.460;4.866;2022-10-24T23:54:53;13.39;88.25
75899;DHT22;64576;50.460;4.866;2022-10-24T23:57:18;13.42;88.19
75899;DHT22;64576;50.460;4.866;2022-10-24T23:59:45;13.37;88.29
